sensor_id;sensor_type;location;lat;lon;timestamp;temperature;humidity
13721;DHT22;6932;51.438;5.470;2022-11-20T00:01:11;9.30;67.10
13721;DHT22;6932;51.438;5.470;2022-11-20T00:03:42;9.40;67.20
13721;DHT22;6932;51.438;5.470;2022-11-20T00:06:10;9.30;67.10
13721;DHT22;6932;51.438;5.470;2022-11-20T00:08:39;9.30;67.40
13721;DHT22;6932;51.438;5.470;2022-11-20T00:11:07;9.30;67.30
13721;DHT22;6932;51.438;5.470;2022-11-20T00:13:37;9.30;68.20
13721;DHT22;6932;51.438;5.470;2022-11-20T00:16:06;9.30;67.40
13721;DHT22;6932;51.438;5.470;2022-11-20T00:18:35;9.30;67.60
13721;DHT22;6932;51.438;5.470;2022-11-20T00:21:03;9.30;67.50
13721;DHT22;6932;51.438;5.470;2022-11-20T00:23:30;9.30;67.60
13721;DHT22;6932;51.438;5.470;2022-11-20T00:26:04;9.30;67.40
13721;DHT22;6932;51.438;5.470;2022-11-20T00:28:31;9.20;67.50
13721;DHT22;6932;51.438;5.470;2022-11-20T00:31:05;9.30;67.20
13721;DHT22;6932;51.438;5.470;2022-11-20T00:33:33;9.10;67.40
13721;DHT22;6932;51.438;5.470;2022-11-20T00:36:04;9.20;67.50
13721;DHT22;6932;51.438;5.470;2022-11-20T00:38:32;9.20;67.70
13721;DHT22;6932;51.438;5.470;2022-11-20T00:40:59;9.20;67.70
13721;DHT22;6932;51.438;5.470;2022-11-20T00:43:27;9.10;67.70
13721;DHT22;6932;51.438;5.470;2022-11-20T00:45:57;9.20;67.80
13721;DHT22;6932;51.438;5.470;2022-11-20T00:48:27;9.10;67.70
13721;DHT22;6932;51.438;5.470;2022-11-20T00:50:56;9.10;67.60
13721;DHT22;6932;51.438;5.470;2022-11-20T00:53:22;9.10;67.80
13721;DHT22;6932;51.438;5.470;2022-11-20T00:55:56;9.10;67.70
13721;DHT22;6932;51.438;5.470;2022-11-20T00:58:37;9.10;68.20
13721;DHT22;6932;51.438;5.470;2022-11-20T01:01:09;9.10;68.10
13721;DHT22;6932;51.438;5.470;2022-11-20T01:03:39;9.10;68.10
13721;DHT22;6932;51.438;5.470;2022-11-20T01:06:11;9.10;68.20
13721;DHT22;6932;51.438;5.470;2022-11-20T01:08:39;9.10;68.30
13721;DHT22;6932;51.438;5.470;2022-11-20T01:11:13;9.10;68.40
13721;DHT22;6932;51.438;5.470;2022-11-20T01:13:51;9.10;68.50
13721;DHT22;6932;51.438;5.470;2022-11-20T01:16:27;9.10;68.40
13721;DHT22;6932;51.438;5.470;2022-11-20T01:18:58;9.10;68.50
13721;DHT22;6932;51.438;5.470;2022-11-20T01:21:28;9.10;68.40
13721;DHT22;6932;51.438;5.470;2022-11-20T01:23:59;9.00;68.40
13721;DHT22;6932;51.438;5.470;2022-11-20T01:26:30;9.20;68.60
13721;DHT22;6932;51.438;5.470;2022-11-20T01:29:01;9.10;68.50
13721;DHT22;6932;51.438;5.470;2022-11-20T01:31:37;9.10;68.50
13721;DHT22;6932;51.438;5.470;2022-11-20T01:34:06;9.00;68.50
13721;DHT22;6932;51.438;5.470;2022-11-20T01:36:37;9.00;68.60
13721;DHT22;6932;51.438;5.470;2022-11-20T01:39:09;9.00;68.60
13721;DHT22;6932;51.438;5.470;2022-11-20T01:41:38;9.00;68.70
13721;DHT22;6932;51.438;5.470;2022-11-20T01:44:53;9.00;68.70
13721;DHT22;6932;51.438;5.470;2022-11-20T01:50:11;9.10;69.00
13721;DHT22;6932;51.438;5.470;2022-11-20T01:53:10;9.00;68.80
13721;DHT22;6932;51.438;5.470;2022-11-20T01:55:47;9.10;68.80
13721;DHT22;6932;51.438;5.470;2022-11-20T01:58:25;9.10;68.80
13721;DHT22;6932;51.438;5.470;2022-11-20T02:00:55;9.10;69.00
13721;DHT22;6932;51.438;5.470;2022-11-20T02:03:22;9.10;69.20
13721;DHT22;6932;51.438;5.470;2022-11-20T02:06:35;9.10;69.30
13721;DHT22;6932;51.438;5.470;2022-11-20T02:08:56;9.20;69.50
13721;DHT22;6932;51.438;5.470;2022-11-20T02:11:22;9.20;69.00
13721;DHT22;6932;51.438;5.470;2022-11-20T02:13:48;9.20;69.10
13721;DHT22;6932;51.438;5.470;2022-11-20T02:16:30;9.20;69.40
13721;DHT22;6932;51.438;5.470;2022-11-20T02:19:00;9.20;69.40
13721;DHT22;6932;51.438;5.470;2022-11-20T02:21:45;9.20;69.40
13721;DHT22;6932;51.438;5.470;2022-11-20T02:24:15;9.30;69.60
13721;DHT22;6932;51.438;5.470;2022-11-20T02:26:59;9.30;69.60
13721;DHT22;6932;51.438;5.470;2022-11-20T02:32:27;9.30;69.60
13721;DHT22;6932;51.438;5.470;2022-11-20T02:34:55;9.30;69.70
13721;DHT22;6932;51.438;5.470;2022-11-20T02:37:22;9.30;69.70
13721;DHT22;6932;51.438;5.470;2022-11-20T02:39:51;9.30;69.80
13721;DHT22;6932;51.438;5.470;2022-11-20T02:42:18;9.40;69.80
13721;DHT22;6932;51.438;5.470;2022-11-20T02:44:44;9.40;70.00
13721;DHT22;6932;51.438;5.470;2022-11-20T02:47:10;9.40;69.80
13721;DHT22;6932;51.438;5.470;2022-11-20T02:49:36;9.40;70.00
13721;DHT22;6932;51.438;5.470;2022-11-20T02:52:02;9.40;69.90
13721;DHT22;6932;51.438;5.470;2022-11-20T02:54:28;9.40;70.10
13721;DHT22;6932;51.438;5.470;2022-11-20T02:56:53;9.40;69.80
13721;DHT22;6932;51.438;5.470;2022-11-20T02:59:22;9.40;69.60
13721;DHT22;6932;51.438;5.470;2022-11-20T03:01:48;9.50;69.90
13721;DHT22;6932;51.438;5.470;2022-11-20T03:04:14;9.40;70.00
13721;DHT22;6932;51.438;5.470;2022-11-20T03:06:40;9.50;70.00
13721;DHT22;6932;51.438;5.470;2022-11-20T03:09:05;9.40;70.00
13721;DHT22;6932;51.438;5.470;2022-11-20T03:11:34;9.50;70.10
13721;DHT22;6932;51.438;5.470;2022-11-20T03:14:03;9.50;70.10
13721;DHT22;6932;51.438;5.470;2022-11-20T03:16:31;9.40;70.10
13721;DHT22;6932;51.438;5.470;2022-11-20T03:18:58;9.40;70.20
13721;DHT22;6932;51.438;5.470;2022-11-20T03:21:24;9.40;70.20
13721;DHT22;6932;51.438;5.470;2022-11-20T03:23:50;9.50;70.20
13721;DHT22;6932;51.438;5.470;2022-11-20T03:26:22;9.40;70.30
13721;DHT22;6932;51.438;5.470;2022-11-20T03:28:58;9.40;70.30
13721;DHT22;6932;51.438;5.470;2022-11-20T03:31:28;9.50;70.40
13721;DHT22;6932;51.438;5.470;2022-11-20T03:33:59;9.40;70.40
13721;DHT22;6932;51.438;5.470;2022-11-20T03:36:26;9.40;70.50
13721;DHT22;6932;51.438;5.470;2022-11-20T03:38:56;9.40;70.40
13721;DHT22;6932;51.438;5.470;2022-11-20T03:41:28;9.40;70.50
13721;DHT22;6932;51.438;5.470;2022-11-20T03:44:01;9.40;70.50
13721;DHT22;6932;51.438;5.470;2022-11-20T03:46:29;9.40;70.50
13721;DHT22;6932;51.438;5.470;2022-11-20T03:48:56;9.40;70.50
13721;DHT22;6932;51.438;5.470;2022-11-20T03:51:30;9.40;70.40
13721;DHT22;6932;51.438;5.470;2022-11-20T03:54:02;9.40;70.50
13721;DHT22;6932;51.438;5.470;2022-11-20T03:56:32;9.40;70.40
13721;DHT22;6932;51.438;5.470;2022-11-20T03:59:02;9.50;70.50
13721;DHT22;6932;51.438;5.470;2022-11-20T04:01:32;9.40;70.50
13721;DHT22;6932;51.438;5.470;2022-11-20T04:03:59;9.40;70.50
13721;DHT22;6932;51.438;5.470;2022-11-20T04:06:27;9.40;70.40
13721;DHT22;6932;51.438;5.470;2022-11-20T04:08:58;9.40;70.60
13721;DHT22;6932;51.438;5.470;2022-11-20T04:11:27;9.40;70.70
13721;DHT22;6932;51.438;5.470;2022-11-20T04:14:02;9.40;70.60
13721;DHT22;6932;51.438;5.470;2022-11-20T04:16:31;9.40;70.60
13721;DHT22;6932;51.438;5.470;2022-11-20T04:19:00;9.40;70.50
13721;DHT22;6932;51.438;5.470;2022-11-20T04:21:31;9.40;70.60
13721;DHT22;6932;51.438;5.470;2022-11-20T04:23:57;9.40;70.40
13721;DHT22;6932;51.438;5.470;2022-11-20T04:26:25;9.40;70.70
13721;DHT22;6932;51.438;5.470;2022-11-20T04:28:52;9.40;70.70
13721;DHT22;6932;51.438;5.470;2022-11-20T04:31:23;9.40;70.70
13721;DHT22;6932;51.438;5.470;2022-11-20T04:33:51;9.40;70.90
13721;DHT22;6932;51.438;5.470;2022-11-20T04:36:20;9.40;70.50
13721;DHT22;6932;51.438;5.470;2022-11-20T04:38:54;9.40;70.80
13721;DHT22;6932;51.438;5.470;2022-11-20T04:41:26;9.40;70.70
13721;DHT22;6932;51.438;5.470;2022-11-20T04:43:56;9.40;70.80
13721;DHT22;6932;51.438;5.470;2022-11-20T04:46:29;9.50;70.80
13721;DHT22;6932;51.438;5.470;2022-11-20T04:48:59;9.40;70.80
13721;DHT22;6932;51.438;5.470;2022-11-20T04:51:26;9.50;71.00
13721;DHT22;6932;51.438;5.470;2022-11-20T04:53:52;9.60;71.10
13721;DHT22;6932;51.438;5.470;2022-11-20T04:56:18;9.50;71.10
13721;DHT22;6932;51.438;5.470;2022-11-20T04:58:44;9.50;70.90
13721;DHT22;6932;51.438;5.470;2022-11-20T05:01:12;9.50;71.70
13721;DHT22;6932;51.438;5.470;2022-11-20T05:03:41;9.50;71.30
13721;DHT22;6932;51.438;5.470;2022-11-20T05:06:09;9.60;71.30
13721;DHT22;6932;51.438;5.470;2022-11-20T05:08:36;9.60;71.30
13721;DHT22;6932;51.438;5.470;2022-11-20T05:11:04;9.60;71.30
13721;DHT22;6932;51.438;5.470;2022-11-20T05:13:32;9.60;71.20
13721;DHT22;6932;51.438;5.470;2022-11-20T05:16:02;9.60;71.20
13721;DHT22;6932;51.438;5.470;2022-11-20T05:18:30;9.60;71.20
13721;DHT22;6932;51.438;5.470;2022-11-20T05:20:57;9.60;71.20
13721;DHT22;6932;51.438;5.470;2022-11-20T05:23:24;9.70;71.50
13721;DHT22;6932;51.438;5.470;2022-11-20T05:25:54;9.70;71.50
13721;DHT22;6932;51.438;5.470;2022-11-20T05:28:22;9.60;71.40
13721;DHT22;6932;51.438;5.470;2022-11-20T05:30:48;9.70;71.40
13721;DHT22;6932;51.438;5.470;2022-11-20T05:33:15;9.70;71.50
13721;DHT22;6932;51.438;5.470;2022-11-20T05:35:41;9.60;71.30
13721;DHT22;6932;51.438;5.470;2022-11-20T05:38:07;9.70;71.30
13721;DHT22;6932;51.438;5.470;2022-11-20T05:40:33;9.60;71.40
13721;DHT22;6932;51.438;5.470;2022-11-20T05:42:59;9.60;71.50
13721;DHT22;6932;51.438;5.470;2022-11-20T05:45:26;9.60;71.70
13721;DHT22;6932;51.438;5.470;2022-11-20T05:47:52;9.60;71.70
13721;DHT22;6932;51.438;5.470;2022-11-20T05:50:18;9.60;71.80
13721;DHT22;6932;51.438;5.470;2022-11-20T05:52:44;9.60;72.00
13721;DHT22;6932;51.438;5.470;2022-11-20T05:55:15;9.60;71.90
13721;DHT22;6932;51.438;5.470;2022-11-20T05:57:41;9.60;71.90
13721;DHT22;6932;51.438;5.470;2022-11-20T06:00:10;9.60;71.80
13721;DHT22;6932;51.438;5.470;2022-11-20T06:02:36;9.60;72.00
13721;DHT22;6932;51.438;5.470;2022-11-20T06:05:04;9.60;72.10
13721;DHT22;6932;51.438;5.470;2022-11-20T06:07:30;9.60;72.30
13721;DHT22;6932;51.438;5.470;2022-11-20T06:09:56;9.60;72.40
13721;DHT22;6932;51.438;5.470;2022-11-20T06:12:22;9.70;72.50
13721;DHT22;6932;51.438;5.470;2022-11-20T06:14:48;9.70;72.60
13721;DHT22;6932;51.438;5.470;2022-11-20T06:17:13;9.70;72.60
13721;DHT22;6932;51.438;5.470;2022-11-20T06:19:39;9.70;72.70
13721;DHT22;6932;51.438;5.470;2022-11-20T06:22:05;9.70;72.80
13721;DHT22;6932;51.438;5.470;2022-11-20T06:24:31;9.80;72.80
13721;DHT22;6932;51.438;5.470;2022-11-20T06:26:57;9.80;72.70
13721;DHT22;6932;51.438;5.470;2022-11-20T06:29:22;9.80;72.60
13721;DHT22;6932;51.438;5.470;2022-11-20T06:31:48;9.80;72.80
13721;DHT22;6932;51.438;5.470;2022-11-20T06:34:14;9.80;72.80
13721;DHT22;6932;51.438;5.470;2022-11-20T06:36:40;9.80;72.70
13721;DHT22;6932;51.438;5.470;2022-11-20T06:39:06;9.90;72.90
13721;DHT22;6932;51.438;5.470;2022-11-20T06:41:32;9.80;72.80
13721;DHT22;6932;51.438;5.470;2022-11-20T06:43:57;9.70;72.90
13721;DHT22;6932;51.438;5.470;2022-11-20T06:46:23;9.70;72.80
13721;DHT22;6932;51.438;5.470;2022-11-20T06:48:50;9.70;72.70
13721;DHT22;6932;51.438;5.470;2022-11-20T06:51:16;9.80;72.70
13721;DHT22;6932;51.438;5.470;2022-11-20T06:53:42;9.70;72.70
13721;DHT22;6932;51.438;5.470;2022-11-20T06:56:08;9.70;72.70
13721;DHT22;6932;51.438;5.470;2022-11-20T06:58:35;9.70;72.60
13721;DHT22;6932;51.438;5.470;2022-11-20T07:01:14;9.70;72.80
13721;DHT22;6932;51.438;5.470;2022-11-20T07:03:44;9.70;72.70
13721;DHT22;6932;51.438;5.470;2022-11-20T07:06:10;9.70;72.60
13721;DHT22;6932;51.438;5.470;2022-11-20T07:08:36;9.70;72.80
13721;DHT22;6932;51.438;5.470;2022-11-20T07:11:04;9.70;72.60
13721;DHT22;6932;51.438;5.470;2022-11-20T07:13:34;9.70;72.70
13721;DHT22;6932;51.438;5.470;2022-11-20T07:16:02;9.70;72.70
13721;DHT22;6932;51.438;5.470;2022-11-20T07:18:32;9.70;72.70
13721;DHT22;6932;51.438;5.470;2022-11-20T07:21:06;9.80;72.70
13721;DHT22;6932;51.438;5.470;2022-11-20T07:23:33;9.70;72.80
13721;DHT22;6932;51.438;5.470;2022-11-20T07:26:10;9.70;72.70
13721;DHT22;6932;51.438;5.470;2022-11-20T07:28:38;9.70;72.90
13721;DHT22;6932;51.438;5.470;2022-11-20T07:31:05;9.70;72.80
13721;DHT22;6932;51.438;5.470;2022-11-20T07:33:32;9.70;73.00
13721;DHT22;6932;51.438;5.470;2022-11-20T07:36:01;9.70;72.70
13721;DHT22;6932;51.438;5.470;2022-11-20T07:38:27;9.70;72.90
13721;DHT22;6932;51.438;5.470;2022-11-20T07:40:57;9.70;72.50
13721;DHT22;6932;51.438;5.470;2022-11-20T07:43:26;9.70;72.70
13721;DHT22;6932;51.438;5.470;2022-11-20T07:45:55;9.70;72.60
13721;DHT22;6932;51.438;5.470;2022-11-20T07:48:22;9.70;72.80
13721;DHT22;6932;51.438;5.470;2022-11-20T07:50:48;9.70;72.80
13721;DHT22;6932;51.438;5.470;2022-11-20T07:53:14;9.70;72.70
13721;DHT22;6932;51.438;5.470;2022-11-20T07:55:46;9.70;72.90
13721;DHT22;6932;51.438;5.470;2022-11-20T07:58:12;9.70;73.10
13721;DHT22;6932;51.438;5.470;2022-11-20T08:00:39;9.80;73.00
13721;DHT22;6932;51.438;5.470;2022-11-20T08:03:08;9.70;73.10
13721;DHT22;6932;51.438;5.470;2022-11-20T08:05:44;9.80;73.00
13721;DHT22;6932;51.438;5.470;2022-11-20T08:08:10;9.90;73.10
13721;DHT22;6932;51.438;5.470;2022-11-20T08:10:36;9.80;73.00
13721;DHT22;6932;51.438;5.470;2022-11-20T08:13:02;9.80;73.30
13721;DHT22;6932;51.438;5.470;2022-11-20T08:15:50;9.80;73.20
13721;DHT22;6932;51.438;5.470;2022-11-20T08:18:18;9.90;73.50
13721;DHT22;6932;51.438;5.470;2022-11-20T08:20:44;9.80;73.10
13721;DHT22;6932;51.438;5.470;2022-11-20T08:23:15;9.80;73.50
13721;DHT22;6932;51.438;5.470;2022-11-20T08:25:49;9.90;73.30
13721;DHT22;6932;51.438;5.470;2022-11-20T08:28:16;9.80;73.60
13721;DHT22;6932;51.438;5.470;2022-11-20T08:30:42;9.90;73.40
13721;DHT22;6932;51.438;5.470;2022-11-20T08:33:08;10.00;73.60
13721;DHT22;6932;51.438;5.470;2022-11-20T08:35:36;9.90;73.90
13721;DHT22;6932;51.438;5.470;2022-11-20T08:38:05;9.90;74.20
13721;DHT22;6932;51.438;5.470;2022-11-20T08:40:32;9.90;74.20
13721;DHT22;6932;51.438;5.470;2022-11-20T08:42:58;10.00;74.30
13721;DHT22;6932;51.438;5.470;2022-11-20T08:45:24;10.00;74.40
13721;DHT22;6932;51.438;5.470;2022-11-20T08:47:50;10.00;74.40
13721;DHT22;6932;51.438;5.470;2022-11-20T08:50:17;10.00;74.30
13721;DHT22;6932;51.438;5.470;2022-11-20T08:52:45;10.10;74.60
13721;DHT22;6932;51.438;5.470;2022-11-20T08:55:14;10.10;74.70
13721;DHT22;6932;51.438;5.470;2022-11-20T08:57:43;10.10;74.60
13721;DHT22;6932;51.438;5.470;2022-11-20T09:00:10;10.10;74.70
13721;DHT22;6932;51.438;5.470;2022-11-20T09:02:42;10.10;75.10
13721;DHT22;6932;51.438;5.470;2022-11-20T09:05:08;10.20;75.00
13721;DHT22;6932;51.438;5.470;2022-11-20T09:07:33;10.20;75.10
13721;DHT22;6932;51.438;5.470;2022-11-20T09:09:59;10.20;75.70
13721;DHT22;6932;51.438;5.470;2022-11-20T09:12:25;10.30;75.20
13721;DHT22;6932;51.438;5.470;2022-11-20T09:14:53;10.30;75.30
13721;DHT22;6932;51.438;5.470;2022-11-20T09:17:19;10.30;75.60
13721;DHT22;6932;51.438;5.470;2022-11-20T09:19:45;10.30;75.30
13721;DHT22;6932;51.438;5.470;2022-11-20T09:22:14;10.40;75.60
13721;DHT22;6932;51.438;5.470;2022-11-20T09:24:40;10.40;75.90
13721;DHT22;6932;51.438;5.470;2022-11-20T09:27:06;10.50;76.00
13721;DHT22;6932;51.438;5.470;2022-11-20T09:29:32;10.50;76.10
13721;DHT22;6932;51.438;5.470;2022-11-20T09:31:57;10.50;76.30
13721;DHT22;6932;51.438;5.470;2022-11-20T09:34:26;10.50;76.30
13721;DHT22;6932;51.438;5.470;2022-11-20T09:36:51;10.60;76.50
13721;DHT22;6932;51.438;5.470;2022-11-20T09:39:17;10.60;76.50
13721;DHT22;6932;51.438;5.470;2022-11-20T09:45:23;10.60;76.90
13721;DHT22;6932;51.438;5.470;2022-11-20T09:56:38;10.80;77.30
13721;DHT22;6932;51.438;5.470;2022-11-20T09:59:11;10.70;77.40
13721;DHT22;6932;51.438;5.470;2022-11-20T10:01:48;10.70;77.50
13721;DHT22;6932;51.438;5.470;2022-11-20T10:04:19;10.80;77.50
13721;DHT22;6932;51.438;5.470;2022-11-20T10:07:07;10.80;77.70
13721;DHT22;6932;51.438;5.470;2022-11-20T10:09:55;10.80;77.90
13721;DHT22;6932;51.438;5.470;2022-11-20T10:20:59;10.90;78.00
13721;DHT22;6932;51.438;5.470;2022-11-20T10:24:23;10.90;78.10
13721;DHT22;6932;51.438;5.470;2022-11-20T10:27:05;10.90;78.20
13721;DHT22;6932;51.438;5.470;2022-11-20T10:30:13;10.90;78.40
13721;DHT22;6932;51.438;5.470;2022-11-20T10:32:49;10.80;78.20
13721;DHT22;6932;51.438;5.470;2022-11-20T10:36:00;10.70;78.60
13721;DHT22;6932;51.438;5.470;2022-11-20T10:38:42;10.50;79.10
13721;DHT22;6932;51.438;5.470;2022-11-20T10:41:38;10.30;79.80
13721;DHT22;6932;51.438;5.470;2022-11-20T10:44:21;10.10;80.50
13721;DHT22;6932;51.438;5.470;2022-11-20T10:47:18;10.00;81.40
13721;DHT22;6932;51.438;5.470;2022-11-20T10:49:48;9.90;82.00
13721;DHT22;6932;51.438;5.470;2022-11-20T10:52:25;9.80;82.90
13721;DHT22;6932;51.438;5.470;2022-11-20T10:55:23;9.70;83.20
13721;DHT22;6932;51.438;5.470;2022-11-20T10:58:41;9.60;83.60
13721;DHT22;6932;51.438;5.470;2022-11-20T11:04:01;9.60;84.50
13721;DHT22;6932;51.438;5.470;2022-11-20T11:06:43;9.50;84.80
13721;DHT22;6932;51.438;5.470;2022-11-20T11:09:21;9.50;85.40
13721;DHT22;6932;51.438;5.470;2022-11-20T11:11:55;9.50;85.80
13721;DHT22;6932;51.438;5.470;2022-11-20T11:14:22;9.50;86.50
13721;DHT22;6932;51.438;5.470;2022-11-20T11:16:56;9.50;86.60
13721;DHT22;6932;51.438;5.470;2022-11-20T11:19:23;9.50;86.70
13721;DHT22;6932;51.438;5.470;2022-11-20T11:21:55;9.50;86.90
13721;DHT22;6932;51.438;5.470;2022-11-20T11:24:24;9.50;87.10
13721;DHT22;6932;51.438;5.470;2022-11-20T11:27:00;9.60;87.60
13721;DHT22;6932;51.438;5.470;2022-11-20T11:29:32;9.60;87.40
13721;DHT22;6932;51.438;5.470;2022-11-20T11:32:08;9.70;87.70
13721;DHT22;6932;51.438;5.470;2022-11-20T11:34:58;9.80;88.00
13721;DHT22;6932;51.438;5.470;2022-11-20T11:37:38;10.00;88.00
13721;DHT22;6932;51.438;5.470;2022-11-20T11:40:06;10.20;87.90
13721;DHT22;6932;51.438;5.470;2022-11-20T11:42:46;10.30;87.80
13721;DHT22;6932;51.438;5.470;2022-11-20T11:45:28;10.50;87.50
13721;DHT22;6932;51.438;5.470;2022-11-20T11:47:56;10.60;87.00
13721;DHT22;6932;51.438;5.470;2022-11-20T11:50:25;10.80;86.80
13721;DHT22;6932;51.438;5.470;2022-11-20T11:53:17;10.90;86.50
13721;DHT22;6932;51.438;5.470;2022-11-20T11:55:58;11.00;86.30
13721;DHT22;6932;51.438;5.470;2022-11-20T11:58:48;11.10;86.00
13721;DHT22;6932;51.438;5.470;2022-11-20T12:04:40;11.30;85.60
13721;DHT22;6932;51.438;5.470;2022-11-20T12:09:52;11.50;85.10
13721;DHT22;6932;51.438;5.470;2022-11-20T12:12:31;11.50;85.00
13721;DHT22;6932;51.438;5.470;2022-11-20T12:15:04;11.60;84.90
13721;DHT22;6932;51.438;5.470;2022-11-20T12:17:36;11.60;84.70
13721;DHT22;6932;51.438;5.470;2022-11-20T12:20:02;11.70;84.30
13721;DHT22;6932;51.438;5.470;2022-11-20T12:25:16;11.80;84.40
13721;DHT22;6932;51.438;5.470;2022-11-20T12:30:50;11.80;84.50
13721;DHT22;6932;51.438;5.470;2022-11-20T12:33:50;11.90;84.60
13721;DHT22;6932;51.438;5.470;2022-11-20T12:39:50;12.00;84.60
13721;DHT22;6932;51.438;5.470;2022-11-20T12:51:44;12.10;85.50
13721;DHT22;6932;51.438;5.470;2022-11-20T12:54:29;12.10;84.80
13721;DHT22;6932;51.438;5.470;2022-11-20T12:57:42;12.20;84.90
13721;DHT22;6932;51.438;5.470;2022-11-20T13:00:18;12.20;85.00
13721;DHT22;6932;51.438;5.470;2022-11-20T13:06:14;12.30;85.20
13721;DHT22;6932;51.438;5.470;2022-11-20T13:08:50;12.30;85.20
13721;DHT22;6932;51.438;5.470;2022-11-20T13:20:04;12.40;85.30
13721;DHT22;6932;51.438;5.470;2022-11-20T13:22:53;12.50;85.30
13721;DHT22;6932;51.438;5.470;2022-11-20T13:25:34;12.50;85.40
13721;DHT22;6932;51.438;5.470;2022-11-20T13:28:04;12.50;85.30
13721;DHT22;6932;51.438;5.470;2022-11-20T13:30:48;12.60;85.30
13721;DHT22;6932;51.438;5.470;2022-11-20T13:33:38;12.60;85.30
13721;DHT22;6932;51.438;5.470;2022-11-20T13:36:26;12.60;85.40
13721;DHT22;6932;51.438;5.470;2022-11-20T13:38:55;12.60;85.50
13721;DHT22;6932;51.438;5.470;2022-11-20T13:41:36;12.70;85.50
13721;DHT22;6932;51.438;5.470;2022-11-20T13:44:22;12.70;85.60
13721;DHT22;6932;51.438;5.470;2022-11-20T13:47:03;12.70;85.50
13721;DHT22;6932;51.438;5.470;2022-11-20T13:49:45;12.80;85.50
13721;DHT22;6932;51.438;5.470;2022-11-20T13:58:50;12.80;85.60
13721;DHT22;6932;51.438;5.470;2022-11-20T14:01:30;12.80;85.70
13721;DHT22;6932;51.438;5.470;2022-11-20T14:03:58;12.90;85.70
13721;DHT22;6932;51.438;5.470;2022-11-20T14:06:29;12.90;85.80
13721;DHT22;6932;51.438;5.470;2022-11-20T14:09:00;12.90;85.80
13721;DHT22;6932;51.438;5.470;2022-11-20T14:11:28;12.90;85.80
13721;DHT22;6932;51.438;5.470;2022-11-20T14:14:03;13.00;85.80
13721;DHT22;6932;51.438;5.470;2022-11-20T14:16:45;13.00;86.10
13721;DHT22;6932;51.438;5.470;2022-11-20T14:21:51;13.00;85.80
13721;DHT22;6932;51.438;5.470;2022-11-20T14:24:29;13.00;86.10
13721;DHT22;6932;51.438;5.470;2022-11-20T14:26:55;13.00;86.20
13721;DHT22;6932;51.438;5.470;2022-11-20T14:29:23;13.10;86.20
13721;DHT22;6932;51.438;5.470;2022-11-20T14:31:54;13.10;86.40
13721;DHT22;6932;51.438;5.470;2022-11-20T14:34:25;13.10;86.40
13721;DHT22;6932;51.438;5.470;2022-11-20T14:36:58;13.10;86.60
13721;DHT22;6932;51.438;5.470;2022-11-20T14:39:41;13.10;86.70
13721;DHT22;6932;51.438;5.470;2022-11-20T14:42:23;13.10;86.70
13721;DHT22;6932;51.438;5.470;2022-11-20T14:44:54;13.20;86.80
13721;DHT22;6932;51.438;5.470;2022-11-20T14:47:30;13.20;86.80
13721;DHT22;6932;51.438;5.470;2022-11-20T14:49:57;13.20;87.00
13721;DHT22;6932;51.438;5.470;2022-11-20T14:52:28;13.20;87.10
13721;DHT22;6932;51.438;5.470;2022-11-20T14:54:55;13.20;87.20
13721;DHT22;6932;51.438;5.470;2022-11-20T14:57:35;13.20;87.30
13721;DHT22;6932;51.438;5.470;2022-11-20T15:02:48;13.20;87.50
13721;DHT22;6932;51.438;5.470;2022-11-20T15:05:17;13.20;87.50
13721;DHT22;6932;51.438;5.470;2022-11-20T15:07:47;13.20;87.70
13721;DHT22;6932;51.438;5.470;2022-11-20T15:10:26;13.20;87.70
13721;DHT22;6932;51.438;5.470;2022-11-20T15:13:00;13.20;87.90
13721;DHT22;6932;51.438;5.470;2022-11-20T15:15:56;13.20;88.00
13721;DHT22;6932;51.438;5.470;2022-11-20T15:18:26;13.20;87.50
13721;DHT22;6932;51.438;5.470;2022-11-20T15:20:54;13.20;88.10
13721;DHT22;6932;51.438;5.470;2022-11-20T15:23:22;13.20;88.20
13721;DHT22;6932;51.438;5.470;2022-11-20T15:25:49;13.20;88.30
13721;DHT22;6932;51.438;5.470;2022-11-20T15:31:19;13.20;88.50
13721;DHT22;6932;51.438;5.470;2022-11-20T15:33:49;13.20;88.60
13721;DHT22;6932;51.438;5.470;2022-11-20T15:36:16;13.20;88.60
13721;DHT22;6932;51.438;5.470;2022-11-20T15:38:45;13.20;88.80
13721;DHT22;6932;51.438;5.470;2022-11-20T15:41:11;13.20;89.00
13721;DHT22;6932;51.438;5.470;2022-11-20T15:43:37;13.20;89.00
13721;DHT22;6932;51.438;5.470;2022-11-20T15:46:13;13.20;89.30
13721;DHT22;6932;51.438;5.470;2022-11-20T15:48:45;13.20;89.40
13721;DHT22;6932;51.438;5.470;2022-11-20T15:51:24;13.20;89.50
13721;DHT22;6932;51.438;5.470;2022-11-20T15:53:55;13.30;89.60
13721;DHT22;6932;51.438;5.470;2022-11-20T15:56:21;13.30;89.70
13721;DHT22;6932;51.438;5.470;2022-11-20T15:58:49;13.30;89.80
13721;DHT22;6932;51.438;5.470;2022-11-20T16:01:21;13.30;90.00
13721;DHT22;6932;51.438;5.470;2022-11-20T16:03:50;13.30;90.00
13721;DHT22;6932;51.438;5.470;2022-11-20T16:06:16;13.30;89.90
13721;DHT22;6932;51.438;5.470;2022-11-20T16:08:41;13.30;90.00
13721;DHT22;6932;51.438;5.470;2022-11-20T16:11:12;13.40;90.00
13721;DHT22;6932;51.438;5.470;2022-11-20T16:13:42;13.40;90.30
13721;DHT22;6932;51.438;5.470;2022-11-20T16:16:33;13.40;90.20
13721;DHT22;6932;51.438;5.470;2022-11-20T16:19:01;13.40;90.40
13721;DHT22;6932;51.438;5.470;2022-11-20T16:21:28;13.40;90.60
13721;DHT22;6932;51.438;5.470;2022-11-20T16:24:01;13.40;90.50
13721;DHT22;6932;51.438;5.470;2022-11-20T16:26:29;13.50;90.50
13721;DHT22;6932;51.438;5.470;2022-11-20T16:28:55;13.50;90.50
13721;DHT22;6932;51.438;5.470;2022-11-20T16:31:22;13.50;90.50
13721;DHT22;6932;51.438;5.470;2022-11-20T16:34:07;13.50;90.60
13721;DHT22;6932;51.438;5.470;2022-11-20T16:36:33;13.50;90.70
13721;DHT22;6932;51.438;5.470;2022-11-20T16:39:01;13.60;90.60
13721;DHT22;6932;51.438;5.470;2022-11-20T16:41:31;13.60;90.80
13721;DHT22;6932;51.438;5.470;2022-11-20T16:44:00;13.60;90.80
13721;DHT22;6932;51.438;5.470;2022-11-20T16:46:29;13.60;90.80
13721;DHT22;6932;51.438;5.470;2022-11-20T16:49:03;13.70;90.90
13721;DHT22;6932;51.438;5.470;2022-11-20T16:51:33;13.70;90.90
13721;DHT22;6932;51.438;5.470;2022-11-20T16:54:05;13.70;90.90
13721;DHT22;6932;51.438;5.470;2022-11-20T16:56:32;13.70;91.00
13721;DHT22;6932;51.438;5.470;2022-11-20T16:58:59;13.70;91.00
13721;DHT22;6932;51.438;5.470;2022-11-20T17:01:27;13.80;91.00
13721;DHT22;6932;51.438;5.470;2022-11-20T17:06:28;13.80;91.10
13721;DHT22;6932;51.438;5.470;2022-11-20T17:09:10;13.80;91.20
13721;DHT22;6932;51.438;5.470;2022-11-20T17:11:38;13.80;91.10
13721;DHT22;6932;51.438;5.470;2022-11-20T17:14:05;13.90;91.20
13721;DHT22;6932;51.438;5.470;2022-11-20T17:16:37;13.90;91.20
13721;DHT22;6932;51.438;5.470;2022-11-20T17:19:03;13.90;91.30
13721;DHT22;6932;51.438;5.470;2022-11-20T17:21:34;13.90;91.30
13721;DHT22;6932;51.438;5.470;2022-11-20T17:24:02;14.00;91.40
13721;DHT22;6932;51.438;5.470;2022-11-20T17:26:31;14.00;91.40
13721;DHT22;6932;51.438;5.470;2022-11-20T17:29:01;14.00;91.40
13721;DHT22;6932;51.438;5.470;2022-11-20T17:31:33;14.10;91.50
13721;DHT22;6932;51.438;5.470;2022-11-20T17:34:07;14.00;91.50
13721;DHT22;6932;51.438;5.470;2022-11-20T17:36:36;14.10;91.60
13721;DHT22;6932;51.438;5.470;2022-11-20T17:39:06;14.10;91.60
13721;DHT22;6932;51.438;5.470;2022-11-20T17:41:32;14.10;91.50
13721;DHT22;6932;51.438;5.470;2022-11-20T17:43:59;14.20;91.60
13721;DHT22;6932;51.438;5.470;2022-11-20T17:46:29;14.20;91.80